createdAt,value
2023-02-20T00:00:27.069Z,1.37
2023-02-20T00:02:53.645Z,1.60
2023-02-20T00:05:20.584Z,1.87
2023-02-20T00:07:48.483Z,2.13
2023-02-20T00:10:15.686Z,1.80
2023-02-20T00:12:42.402Z,1.87
2023-02-20T00:15:09.318Z,2.20
2023-02-20T00:17:35.736Z,1.80
2023-02-20T00:20:02.709Z,1.80
2023-02-20T00:22:29.114Z,2.40
2023-02-20T00:24:55.489Z,1.90
2023-02-20T00:27:21.896Z,2.20
2023-02-20T00:29:48.280Z,2.30
2023-02-20T00:32:15.603Z,1.83
2023-02-20T00:34:42.164Z,1.90
2023-02-20T00:37:08.857Z,2.63
2023-02-20T00:39:35.306Z,2.93
2023-02-20T00:42:01.974Z,2.00
2023-02-20T00:44:28.394Z,2.27
2023-02-20T00:46:55.062Z,2.23
2023-02-20T00:49:21.451Z,2.50
2023-02-20T00:51:48.051Z,2.40
2023-02-20T00:54:14.736Z,1.90
2023-02-20T00:56:41.224Z,2.70
2023-02-20T00:59:07.995Z,2.67
2023-02-20T01:01:34.440Z,2.30
2023-02-20T01:04:00.847Z,2.77
2023-02-20T01:06:27.349Z,2.30
2023-02-20T01:08:53.789Z,2.93
2023-02-20T01:11:20.146Z,2.27
2023-02-20T01:13:46.576Z,2.67
2023-02-20T01:16:13.386Z,2.50
2023-02-20T01:18:39.951Z,2.87
2023-02-20T01:21:06.379Z,2.13
2023-02-20T01:23:32.823Z,2.10
2023-02-20T01:25:59.325Z,2.40
2023-02-20T01:28:25.671Z,2.30
2023-02-20T01:30:52.080Z,2.33
2023-02-20T01:33:18.534Z,2.93
2023-02-20T01:35:44.975Z,2.10
2023-02-20T01:38:11.436Z,2.67
2023-02-20T01:40:38.664Z,2.63
2023-02-20T01:43:05.139Z,2.40
2023-02-20T01:45:36.220Z,2.77
2023-02-20T01:48:03.080Z,2.30
2023-02-20T01:50:35.409Z,2.43
2023-02-20T01:53:04.826Z,2.50
2023-02-20T01:55:38.115Z,2.50
2023-02-20T01:58:24.740Z,2.70
2023-02-20T02:00:51.927Z,2.60
2023-02-20T02:03:20.593Z,3.30
2023-02-20T02:05:48.773Z,2.40
2023-02-20T02:08:16.906Z,2.90
2023-02-20T02:10:49.330Z,2.83
2023-02-20T02:13:15.719Z,2.83
2023-02-20T02:15:42.153Z,3.40
2023-02-20T02:18:34.529Z,3.03
2023-02-20T02:21:13.453Z,2.97
2023-02-20T02:23:40.005Z,2.80
2023-02-20T02:26:21.637Z,3.40
2023-02-20T02:29:00.302Z,3.10
2023-02-20T02:31:39.195Z,3.17
2023-02-20T02:34:24.500Z,3.63
2023-02-20T02:37:01.746Z,3.53
2023-02-20T02:39:34.019Z,3.07
2023-02-20T02:42:05.825Z,3.57
2023-02-20T02:44:35.330Z,3.13
2023-02-20T02:47:03.929Z,2.87
2023-02-20T02:49:34.232Z,3.63
2023-02-20T02:52:01.267Z,3.93
2023-02-20T02:54:28.715Z,4.43
2023-02-20T02:57:15.212Z,3.90
2023-02-20T02:59:42.761Z,4.53
2023-02-20T03:02:11.893Z,4.07
2023-02-20T03:04:40.153Z,4.30
2023-02-20T03:07:16.120Z,4.47
2023-02-20T03:09:45.300Z,4.53
2023-02-20T03:12:13.512Z,4.23
2023-02-20T03:15:04.043Z,4.50
2023-02-20T03:17:36.778Z,4.80
2023-02-20T03:20:07.834Z,5.63
2023-02-20T03:22:36.812Z,4.87
2023-02-20T03:25:08.754Z,5.03
2023-02-20T03:27:39.093Z,4.60
2023-02-20T03:30:07.949Z,4.20
2023-02-20T03:32:53.289Z,5.00
2023-02-20T03:35:38.849Z,4.87
2023-02-20T03:38:25.827Z,4.57
2023-02-20T03:41:11.190Z,4.60
2023-02-20T03:43:38.160Z,5.03
2023-02-20T03:46:12.001Z,4.80
2023-02-20T03:48:47.052Z,4.70
2023-02-20T03:51:13.931Z,5.07
2023-02-20T03:53:41.061Z,4.93
2023-02-20T03:56:13.466Z,4.60
2023-02-20T03:58:42.204Z,4.73
2023-02-20T04:01:09.884Z,5.13
2023-02-20T04:03:39.892Z,5.13
2023-02-20T04:06:07.239Z,4.90
2023-02-20T04:08:46.315Z,5.30
2023-02-20T04:11:21.708Z,4.53
2023-02-20T04:13:49.169Z,5.23
2023-02-20T04:16:15.969Z,5.47
2023-02-20T04:18:42.560Z,5.30
2023-02-20T04:21:12.932Z,5.00
2023-02-20T04:23:41.798Z,5.67
2023-02-20T04:26:10.170Z,5.23
2023-02-20T04:28:37.050Z,5.97
2023-02-20T04:31:03.782Z,6.50
2023-02-20T04:33:30.210Z,5.30
2023-02-20T04:35:58.464Z,6.50
2023-02-20T04:38:24.883Z,5.43
2023-02-20T04:40:51.289Z,6.20
2023-02-20T04:43:17.728Z,5.97
2023-02-20T04:45:45.423Z,6.07
2023-02-20T04:48:11.786Z,6.17
2023-02-20T04:50:38.221Z,6.30
2023-02-20T04:53:04.693Z,6.27
2023-02-20T04:55:31.157Z,6.53
2023-02-20T04:57:58.517Z,6.23
2023-02-20T05:00:25.827Z,6.07
2023-02-20T05:02:52.626Z,6.03
2023-02-20T05:05:23.605Z,6.80
2023-02-20T05:07:53.696Z,6.03
2023-02-20T05:10:20.801Z,6.03
2023-02-20T05:12:47.264Z,6.77
2023-02-20T05:15:14.245Z,7.17
2023-02-20T05:17:40.839Z,6.13
2023-02-20T05:20:08.049Z,7.13
2023-02-20T05:22:34.531Z,7.23
2023-02-20T05:25:12.744Z,6.97
2023-02-20T05:27:39.159Z,7.83
2023-02-20T05:30:06.908Z,7.43
2023-02-20T05:32:33.401Z,7.00
2023-02-20T05:34:59.762Z,7.23
2023-02-20T05:37:28.901Z,8.20
2023-02-20T05:39:55.437Z,8.10
2023-02-20T05:42:23.038Z,7.77
2023-02-20T05:44:50.196Z,6.83
2023-02-20T05:47:17.123Z,8.30
2023-02-20T05:49:43.579Z,8.33
2023-02-20T05:52:12.992Z,8.20
2023-02-20T05:54:40.600Z,8.47
2023-02-20T05:57:07.077Z,8.83
2023-02-20T05:59:33.854Z,7.33
2023-02-20T06:02:00.750Z,8.00
2023-02-20T06:04:27.330Z,8.23
2023-02-20T06:06:53.769Z,8.30
2023-02-20T06:09:20.130Z,8.57
2023-02-20T06:11:50.732Z,8.17
2023-02-20T06:14:18.968Z,7.00
2023-02-20T06:16:45.726Z,8.40
2023-02-20T06:19:12.372Z,9.33
2023-02-20T06:21:40.329Z,9.23
2023-02-20T06:24:07.120Z,8.83
2023-02-20T06:26:41.927Z,8.87
2023-02-20T06:29:08.562Z,8.50
2023-02-20T06:31:35.076Z,9.20
2023-02-20T06:34:01.476Z,9.13
2023-02-20T06:36:29.686Z,9.43
2023-02-20T06:38:58.133Z,9.80
2023-02-20T06:41:25.078Z,8.83
2023-02-20T06:43:51.528Z,10.00
2023-02-20T06:46:18.009Z,10.43
2023-02-20T06:48:48.572Z,9.23
2023-02-20T06:51:19.642Z,8.63
2023-02-20T06:53:46.303Z,10.97
2023-02-20T06:56:23.494Z,8.70
2023-02-20T06:58:50.918Z,10.00
2023-02-20T07:01:17.856Z,10.00
2023-02-20T07:03:47.252Z,10.90
2023-02-20T07:06:14.082Z,9.50
2023-02-20T07:08:41.019Z,9.60
2023-02-20T07:11:07.722Z,10.67
2023-02-20T07:13:34.329Z,10.60
2023-02-20T07:16:00.998Z,10.40
2023-02-20T07:18:28.020Z,11.13
2023-02-20T07:20:55.289Z,11.43
2023-02-20T07:23:21.958Z,11.87
2023-02-20T07:25:49.838Z,11.23
2023-02-20T07:28:17.462Z,11.67
2023-02-20T07:30:44.325Z,11.77
2023-02-20T07:33:11.054Z,12.80
2023-02-20T07:35:37.495Z,9.80
2023-02-20T07:38:03.951Z,12.10
2023-02-20T07:40:30.386Z,13.27
2023-02-20T07:42:56.852Z,13.00
2023-02-20T07:45:23.561Z,14.57
2023-02-20T07:47:50.079Z,12.97
2023-02-20T07:50:17.009Z,14.73
2023-02-20T07:52:44.552Z,13.00
2023-02-20T07:55:13.781Z,11.63
2023-02-20T07:57:40.358Z,14.47
2023-02-20T08:00:07.489Z,11.87
2023-02-20T08:02:33.939Z,15.43
2023-02-20T08:05:00.621Z,15.30
2023-02-20T08:07:27.140Z,13.77
2023-02-20T08:09:53.537Z,14.50
2023-02-20T08:12:19.953Z,15.40
2023-02-20T08:14:46.413Z,16.17
2023-02-20T08:17:12.837Z,16.40
2023-02-20T08:19:39.413Z,14.90
2023-02-20T08:22:06.268Z,15.30
2023-02-20T08:24:32.625Z,15.63
2023-02-20T08:26:59.370Z,15.93
2023-02-20T08:29:25.874Z,15.90
2023-02-20T08:31:52.413Z,16.30
2023-02-20T08:34:19.303Z,16.20
2023-02-20T08:36:45.820Z,15.67
2023-02-20T08:39:12.331Z,16.77
2023-02-20T08:41:45.808Z,15.43
2023-02-20T08:44:12.763Z,15.83
2023-02-20T08:46:46.072Z,16.53
2023-02-20T08:49:12.491Z,18.73
2023-02-20T08:51:38.970Z,17.77
2023-02-20T08:54:05.385Z,17.43
2023-02-20T08:56:31.764Z,18.47
2023-02-20T08:58:58.392Z,16.93
2023-02-20T09:01:25.739Z,17.70
2023-02-20T09:03:52.318Z,18.10
2023-02-20T09:06:20.277Z,16.17
2023-02-20T09:08:46.763Z,17.47
2023-02-20T09:11:13.261Z,17.27
2023-02-20T09:13:43.897Z,18.03
2023-02-20T09:16:10.516Z,18.67
2023-02-20T09:18:37.304Z,17.83
2023-02-20T09:21:03.875Z,18.87
2023-02-20T09:23:36.877Z,21.03
2023-02-20T09:26:03.939Z,20.17
2023-02-20T09:28:30.512Z,20.27
2023-02-20T09:30:57.687Z,20.27
2023-02-20T09:33:24.116Z,20.77
2023-02-20T09:35:51.963Z,20.17
2023-02-20T09:38:19.026Z,20.03
2023-02-20T09:40:48.888Z,20.47
2023-02-20T09:43:37.060Z,18.33
2023-02-20T09:46:03.596Z,19.30
2023-02-20T09:48:42.749Z,20.97
2023-02-20T09:51:13.351Z,20.13
2023-02-20T09:53:46.074Z,16.40
2023-02-20T09:56:16.464Z,17.13
2023-02-20T09:59:09.007Z,19.27
2023-02-20T10:01:38.026Z,20.17
2023-02-20T10:04:06.548Z,17.23
2023-02-20T10:06:33.842Z,18.77
2023-02-20T10:09:02.420Z,18.73
2023-02-20T10:11:38.237Z,18.57
2023-02-20T10:14:26.275Z,18.20
2023-02-20T10:16:55.806Z,18.37
2023-02-20T10:19:33.182Z,15.83
2023-02-20T10:22:14.029Z,15.57
2023-02-20T10:24:44.077Z,14.63
2023-02-20T10:27:10.392Z,15.07
2023-02-20T10:29:37.318Z,14.13
2023-02-20T10:32:07.080Z,13.70
2023-02-20T10:34:37.782Z,11.50
2023-02-20T10:37:08.314Z,13.73
2023-02-20T10:39:35.692Z,11.47
2023-02-20T10:42:14.803Z,11.23
2023-02-20T10:44:52.030Z,10.47
2023-02-20T10:47:19.008Z,10.00
2023-02-20T10:49:56.883Z,10.50
2023-02-20T10:52:33.984Z,10.40
2023-02-20T10:55:16.351Z,10.50
2023-02-20T10:58:03.628Z,8.70
2023-02-20T11:00:41.019Z,8.80
2023-02-20T11:03:10.147Z,9.07
2023-02-20T11:05:40.276Z,9.07
2023-02-20T11:08:06.834Z,7.23
2023-02-20T11:10:35.415Z,8.97
2023-02-20T11:13:02.625Z,8.23
2023-02-20T11:15:30.797Z,7.57
2023-02-20T11:17:59.277Z,7.83
2023-02-20T11:20:31.956Z,7.60
2023-02-20T11:23:02.002Z,7.70
2023-02-20T11:25:34.338Z,7.00
2023-02-20T11:28:08.916Z,6.10
2023-02-20T11:30:36.512Z,5.97
2023-02-20T11:33:23.262Z,6.73
2023-02-20T11:35:50.384Z,5.77
2023-02-20T11:38:19.536Z,5.60
2023-02-20T11:40:47.383Z,5.87
2023-02-20T11:43:15.111Z,5.37
2023-02-20T11:45:41.550Z,6.03
2023-02-20T11:48:10.764Z,4.73
2023-02-20T11:50:40.223Z,5.07
2023-02-20T11:53:07.981Z,5.17
2023-02-20T11:55:34.931Z,4.40
2023-02-20T11:58:02.347Z,4.70
2023-02-20T12:00:30.180Z,4.50
2023-02-20T12:03:12.673Z,5.10
2023-02-20T12:05:43.607Z,4.60
2023-02-20T12:08:28.635Z,5.27
2023-02-20T12:11:00.271Z,4.57
2023-02-20T12:13:26.905Z,3.90
2023-02-20T12:16:00.215Z,4.10
2023-02-20T12:18:36.913Z,5.47
2023-02-20T12:21:06.580Z,4.23
2023-02-20T12:23:39.279Z,4.87
2023-02-20T12:26:14.867Z,4.87
2023-02-20T12:28:55.914Z,4.33
2023-02-20T12:31:34.646Z,3.90
2023-02-20T12:34:26.272Z,3.50
2023-02-20T12:36:55.087Z,3.73
2023-02-20T12:39:27.281Z,3.40
2023-02-20T12:41:59.933Z,3.63
2023-02-20T12:44:33.262Z,4.03
2023-02-20T12:47:17.977Z,3.63
2023-02-20T12:49:54.244Z,3.70
2023-02-20T12:52:31.700Z,3.67
2023-02-20T12:55:19.127Z,4.30
2023-02-20T12:57:48.669Z,3.80
2023-02-20T13:00:22.497Z,3.97
2023-02-20T13:02:52.112Z,3.53
2023-02-20T13:05:20.409Z,3.63
2023-02-20T13:07:52.889Z,3.60
2023-02-20T13:10:30.969Z,4.93
2023-02-20T13:12:57.654Z,3.97
2023-02-20T13:15:27.575Z,3.27
2023-02-20T13:18:04.580Z,3.53
2023-02-20T13:20:35.737Z,3.90
2023-02-20T13:23:02.114Z,3.97
2023-02-20T13:25:31.556Z,3.60
2023-02-20T13:28:02.239Z,4.10
2023-02-20T13:30:28.786Z,4.20
2023-02-20T13:33:15.487Z,3.77
2023-02-20T13:35:41.831Z,3.83
2023-02-20T13:38:15.579Z,3.37
2023-02-20T13:40:43.708Z,4.00
2023-02-20T13:43:13.125Z,4.30
2023-02-20T13:45:39.951Z,3.87
2023-02-20T13:48:38.512Z,4.07
2023-02-20T13:51:18.410Z,3.50
2023-02-20T13:53:51.802Z,3.97
2023-02-20T13:56:19.252Z,4.00
2023-02-20T13:58:45.964Z,3.60
2023-02-20T14:01:15.629Z,4.40
2023-02-20T14:03:42.106Z,4.43
2023-02-20T14:06:12.121Z,3.60
2023-02-20T14:08:41.880Z,4.73
2023-02-20T14:11:09.920Z,4.47
2023-02-20T14:13:40.521Z,3.90
2023-02-20T14:16:26.436Z,4.20
2023-02-20T14:18:56.385Z,3.47
2023-02-20T14:21:23.095Z,4.47
2023-02-20T14:23:50.443Z,4.23
2023-02-20T14:26:28.164Z,4.10
2023-02-20T14:28:55.353Z,4.27
2023-02-20T14:31:24.584Z,3.50
2023-02-20T14:33:58.820Z,3.97
2023-02-20T14:36:25.254Z,4.53
2023-02-20T14:38:57.760Z,4.10
2023-02-20T14:41:24.643Z,4.27
2023-02-20T14:43:55.840Z,4.30
2023-02-20T14:46:24.390Z,4.23
2023-02-20T14:49:02.950Z,4.30
2023-02-20T14:51:29.358Z,4.07
2023-02-20T14:54:10.862Z,4.73
2023-02-20T14:56:37.945Z,3.73
2023-02-20T14:59:24.070Z,4.70
2023-02-20T15:01:51.247Z,3.83
2023-02-20T15:04:18.497Z,3.90
2023-02-20T15:06:46.957Z,3.50
2023-02-20T15:09:22.414Z,3.70
2023-02-20T15:11:55.797Z,4.27
2023-02-20T15:14:24.979Z,3.87
2023-02-20T15:17:18.972Z,4.13
2023-02-20T15:19:46.190Z,4.40
2023-02-20T15:22:31.220Z,4.00
2023-02-20T15:25:16.470Z,3.93
2023-02-20T15:28:02.968Z,3.73
2023-02-20T15:30:29.548Z,4.20
2023-02-20T15:32:57.150Z,4.10
2023-02-20T15:35:25.683Z,4.57
2023-02-20T15:37:59.022Z,4.83
2023-02-20T15:40:28.223Z,4.00
2023-02-20T15:42:58.267Z,4.77
2023-02-20T15:45:26.293Z,4.87
2023-02-20T15:47:52.858Z,4.67
2023-02-20T15:50:19.521Z,5.20
2023-02-20T15:52:46.927Z,4.70
2023-02-20T15:55:17.987Z,4.63
2023-02-20T15:57:46.074Z,5.47
2023-02-20T16:00:23.447Z,4.93
2023-02-20T16:02:50.336Z,4.53
2023-02-20T16:05:23.444Z,5.43
2023-02-20T16:07:50.049Z,4.73
2023-02-20T16:10:18.440Z,4.33
2023-02-20T16:12:44.900Z,4.20
2023-02-20T16:15:18.543Z,5.07
2023-02-20T16:17:45.064Z,4.40
2023-02-20T16:20:25.589Z,4.47
2023-02-20T16:22:52.791Z,4.37
2023-02-20T16:25:20.304Z,4.73
2023-02-20T16:27:49.078Z,4.80
2023-02-20T16:30:32.789Z,4.27
2023-02-20T16:33:00.516Z,4.43
2023-02-20T16:35:26.961Z,3.93
2023-02-20T16:37:53.773Z,4.43
2023-02-20T16:40:20.193Z,4.77
2023-02-20T16:42:47.094Z,5.13
2023-02-20T16:45:20.755Z,4.90
2023-02-20T16:47:54.392Z,4.23
2023-02-20T16:50:23.655Z,3.93
2023-02-20T16:52:50.709Z,4.40
2023-02-20T16:55:28.448Z,3.83
2023-02-20T16:57:55.464Z,3.20
2023-02-20T17:00:25.469Z,4.27
2023-02-20T17:02:53.727Z,4.37
2023-02-20T17:05:31.967Z,3.47
2023-02-20T17:07:59.082Z,5.03
2023-02-20T17:10:26.049Z,3.73
2023-02-20T17:12:52.826Z,3.57
2023-02-20T17:15:20.181Z,3.20
2023-02-20T17:17:46.832Z,3.30
2023-02-20T17:20:14.835Z,3.10
2023-02-20T17:22:42.923Z,3.27
2023-02-20T17:25:14.206Z,3.43
2023-02-20T17:27:40.596Z,2.90
2023-02-20T17:30:07.487Z,3.20
2023-02-20T17:32:33.989Z,3.13
2023-02-20T17:35:00.556Z,3.23
2023-02-20T17:37:30.380Z,3.20
2023-02-20T17:40:00.725Z,2.77
2023-02-20T17:42:27.699Z,3.60
2023-02-20T17:44:54.954Z,2.83
2023-02-20T17:47:22.460Z,3.23
2023-02-20T17:49:50.310Z,3.03
2023-02-20T17:52:17.198Z,3.60
2023-02-20T17:54:47.846Z,3.17
2023-02-20T17:57:15.320Z,3.77
2023-02-20T17:59:42.248Z,3.77
2023-02-20T18:02:10.921Z,3.60
2023-02-20T18:04:37.465Z,3.97
2023-02-20T18:07:04.363Z,4.03
2023-02-20T18:09:30.917Z,3.23
2023-02-20T18:11:57.696Z,4.00
2023-02-20T18:14:24.411Z,3.70
2023-02-20T18:16:51.161Z,4.13
2023-02-20T18:19:18.127Z,4.63
2023-02-20T18:21:48.772Z,5.17
2023-02-20T18:24:16.366Z,6.00
2023-02-20T18:26:44.507Z,6.00
2023-02-20T18:29:10.966Z,6.17
2023-02-20T18:31:38.176Z,5.70
2023-02-20T18:34:04.788Z,5.80
2023-02-20T18:36:31.246Z,5.80
2023-02-20T18:38:57.880Z,6.23
2023-02-20T18:41:24.716Z,5.93
2023-02-20T18:43:51.178Z,5.67
2023-02-20T18:46:30.901Z,5.87
2023-02-20T18:48:58.923Z,5.53
2023-02-20T18:51:26.425Z,5.93
2023-02-20T18:53:55.133Z,9.47
2023-02-20T18:56:22.222Z,5.73
2023-02-20T18:58:48.673Z,5.80
2023-02-20T19:01:19.530Z,6.53
2023-02-20T19:03:52.155Z,6.47
2023-02-20T19:06:29.502Z,5.50
2023-02-20T19:08:58.787Z,5.67
2023-02-20T19:11:25.447Z,5.60
2023-02-20T19:13:52.255Z,5.73
2023-02-20T19:16:19.259Z,5.47
2023-02-20T19:18:50.368Z,5.17
2023-02-20T19:21:18.216Z,5.23
2023-02-20T19:23:45.868Z,6.17
2023-02-20T19:26:12.793Z,5.57
2023-02-20T19:28:42.157Z,5.63
2023-02-20T19:31:09.530Z,6.03
2023-02-20T19:33:36.320Z,5.27
2023-02-20T19:36:02.830Z,7.57
2023-02-20T19:38:29.276Z,6.20
2023-02-20T19:40:55.708Z,5.73
2023-02-20T19:43:22.130Z,6.27
2023-02-20T19:45:48.740Z,5.87
2023-02-20T19:48:15.708Z,5.60
2023-02-20T19:50:42.227Z,5.27
2023-02-20T19:53:08.871Z,5.67
2023-02-20T19:55:35.331Z,6.53
2023-02-20T19:58:02.794Z,5.67
2023-02-20T20:00:29.784Z,5.33
2023-02-20T20:02:58.367Z,4.97
2023-02-20T20:05:25.508Z,5.10
2023-02-20T20:07:52.330Z,4.93
2023-02-20T20:10:21.773Z,5.20
2023-02-20T20:12:48.324Z,4.73
2023-02-20T20:15:18.499Z,5.03
2023-02-20T20:17:49.666Z,4.83
2023-02-20T20:20:16.782Z,4.50
2023-02-20T20:22:43.506Z,4.37
2023-02-20T20:25:11.806Z,4.13
2023-02-20T20:27:38.313Z,3.93
2023-02-20T20:30:06.010Z,4.17
2023-02-20T20:32:32.461Z,3.80
2023-02-20T20:34:59.151Z,3.67
2023-02-20T20:37:27.461Z,4.23
2023-02-20T20:39:59.139Z,4.73
2023-02-20T20:42:26.872Z,4.77
2023-02-20T20:44:54.077Z,4.70
2023-02-20T20:47:22.578Z,4.57
2023-02-20T20:49:49.183Z,5.23
2023-02-20T20:52:15.812Z,4.63
2023-02-20T20:54:42.217Z,4.60
2023-02-20T20:57:08.827Z,4.73
2023-02-20T20:59:37.605Z,5.23
2023-02-20T21:02:07.242Z,5.50
2023-02-20T21:04:33.675Z,4.80
2023-02-20T21:07:00.166Z,4.87
2023-02-20T21:09:26.706Z,4.30
2023-02-20T21:11:53.463Z,5.03
2023-02-20T21:14:19.991Z,4.13
2023-02-20T21:16:46.973Z,4.40
2023-02-20T21:19:13.595Z,4.37
2023-02-20T21:21:40.458Z,5.13
2023-02-20T21:24:07.304Z,4.63
2023-02-20T21:26:34.484Z,5.23
2023-02-20T21:29:01.074Z,4.77
2023-02-20T21:31:27.621Z,4.63
2023-02-20T21:33:54.458Z,4.97
2023-02-20T21:36:21.465Z,4.93
2023-02-20T21:38:47.999Z,5.77
2023-02-20T21:41:37.895Z,4.43
2023-02-20T21:44:22.917Z,4.23
2023-02-20T21:46:50.399Z,4.77
2023-02-20T21:49:16.947Z,5.17
2023-02-20T21:51:43.293Z,4.27
2023-02-20T21:54:09.993Z,4.30
2023-02-20T21:56:36.469Z,4.47
2023-02-20T21:59:05.143Z,4.20
2023-02-20T22:01:38.277Z,4.33
2023-02-20T22:04:06.383Z,4.10
2023-02-20T22:06:33.192Z,4.13
2023-02-20T22:09:18.755Z,3.23
2023-02-20T22:12:03.851Z,3.00
2023-02-20T22:14:48.773Z,3.73
2023-02-20T22:17:33.909Z,3.77
2023-02-20T22:20:19.153Z,3.60
2023-02-20T22:23:04.000Z,3.93
2023-02-20T22:25:48.831Z,3.67
2023-02-20T22:28:34.008Z,3.90
2023-02-20T22:31:19.595Z,2.67
2023-02-20T22:34:05.019Z,3.13
2023-02-20T22:36:49.945Z,3.23
2023-02-20T22:39:35.376Z,3.10
2023-02-20T22:42:29.579Z,3.30
2023-02-20T22:45:19.004Z,2.73
2023-02-20T22:48:03.878Z,2.90
2023-02-20T22:50:48.744Z,2.90
2023-02-20T22:53:33.641Z,2.37
2023-02-20T22:56:18.595Z,2.37
2023-02-20T22:59:03.631Z,2.60
2023-02-20T23:01:49.022Z,2.70
2023-02-20T23:04:34.040Z,2.90
2023-02-20T23:07:19.144Z,2.33
2023-02-20T23:10:04.145Z,2.07
2023-02-20T23:12:49.068Z,2.80
2023-02-20T23:15:34.128Z,1.60
2023-02-20T23:18:19.357Z,2.10
2023-02-20T23:21:07.260Z,2.03
2023-02-20T23:23:52.408Z,1.70
2023-02-20T23:26:37.409Z,1.97
2023-02-20T23:29:22.365Z,1.50
2023-02-20T23:32:07.524Z,1.23
2023-02-20T23:34:52.471Z,1.80
2023-02-20T23:37:37.277Z,1.57
2023-02-20T23:40:30.875Z,1.67
2023-02-20T23:43:21.269Z,1.80
2023-02-20T23:46:06.070Z,1.80
2023-02-20T23:48:51.435Z,1.70
2023-02-20T23:51:36.360Z,2.10
2023-02-20T23:54:21.356Z,2.50
2023-02-20T23:57:06.691Z,2.43
2023-02-20T23:59:51.442Z,2.80
